createdAt,value
2023-01-18T00:00:32.060Z,3.04
2023-01-18T00:04:35.265Z,3.12
2023-01-18T00:08:40.301Z,3.16
2023-01-18T00:12:44.731Z,3.14
2023-01-18T00:16:47.738Z,3.11
2023-01-18T00:20:50.752Z,3.06
2023-01-18T00:24:53.924Z,3.07
2023-01-18T00:28:58.372Z,3.06
2023-01-18T00:33:01.731Z,3.02
2023-01-18T00:37:04.897Z,3.00
2023-01-18T00:41:07.884Z,3.04
2023-01-18T00:45:13.230Z,3.02
2023-01-18T00:49:16.253Z,3.00
2023-01-18T00:53:19.281Z,3.01
2023-01-18T00:57:22.303Z,3.01
2023-01-18T01:01:27.094Z,2.98
2023-01-18T01:05:48.226Z,2.94
2023-01-18T01:09:51.333Z,2.99
2023-01-18T01:14:11.628Z,3.03
2023-01-18T01:18:33.399Z,2.97
2023-01-18T01:22:53.616Z,2.87
2023-01-18T01:26:56.802Z,2.79
2023-01-18T01:31:00.561Z,2.74
2023-01-18T01:35:05.608Z,2.68
2023-01-18T01:39:11.068Z,2.62
2023-01-18T01:43:14.572Z,2.60
2023-01-18T01:47:35.989Z,2.64
2023-01-18T01:51:42.827Z,2.68
2023-01-18T01:55:46.814Z,2.67
2023-01-18T01:59:54.766Z,2.72
2023-01-18T02:04:01.336Z,2.75
2023-01-18T02:08:11.339Z,2.73
2023-01-18T02:12:15.169Z,2.75
2023-01-18T02:16:24.691Z,2.79
2023-01-18T02:21:15.292Z,2.81
2023-01-18T02:25:51.104Z,2.82
2023-01-18T02:30:21.905Z,2.85
2023-01-18T02:34:34.727Z,2.90
2023-01-18T02:38:44.447Z,2.94
2023-01-18T02:43:06.418Z,2.82
2023-01-18T02:47:11.494Z,2.75
2023-01-18T02:51:14.506Z,2.70
2023-01-18T02:55:26.755Z,2.63
2023-01-18T02:59:35.028Z,2.58
2023-01-18T03:03:42.497Z,2.60
2023-01-18T03:07:54.302Z,2.59
2023-01-18T03:12:02.519Z,2.57
2023-01-18T03:16:10.545Z,2.57
2023-01-18T03:20:18.801Z,2.57
2023-01-18T03:24:23.642Z,2.55
2023-01-18T03:28:48.573Z,2.57
2023-01-18T03:33:09.415Z,2.50
2023-01-18T03:37:18.173Z,2.47
2023-01-18T03:41:23.323Z,2.47
2023-01-18T03:45:31.017Z,2.49
2023-01-18T03:49:36.110Z,2.46
2023-01-18T03:53:43.797Z,2.46
2023-01-18T03:57:51.224Z,2.48
2023-01-18T04:01:54.305Z,2.47
2023-01-18T04:05:58.647Z,2.40
2023-01-18T04:10:03.814Z,2.34
2023-01-18T04:14:07.053Z,2.34
2023-01-18T04:18:10.210Z,2.40
2023-01-18T04:22:13.970Z,2.38
2023-01-18T04:26:19.403Z,2.33
2023-01-18T04:30:22.674Z,2.38
2023-01-18T04:34:26.058Z,2.38
2023-01-18T04:38:29.374Z,2.40
2023-01-18T04:42:34.100Z,2.45
2023-01-18T04:46:38.211Z,2.44
2023-01-18T04:50:45.561Z,2.45
2023-01-18T04:54:48.609Z,2.41
2023-01-18T04:58:55.520Z,2.45
2023-01-18T05:02:58.915Z,2.47
2023-01-18T05:07:02.375Z,2.48
2023-01-18T05:11:07.674Z,2.46
2023-01-18T05:15:12.591Z,2.46
2023-01-18T05:19:16.291Z,2.45
2023-01-18T05:23:19.394Z,2.45
2023-01-18T05:27:22.635Z,2.43
2023-01-18T05:31:27.144Z,2.47
2023-01-18T05:35:30.362Z,2.55
2023-01-18T05:39:33.504Z,2.64
2023-01-18T05:43:38.268Z,2.66
2023-01-18T05:47:42.887Z,2.67
2023-01-18T05:51:45.934Z,2.69
2023-01-18T05:55:56.082Z,2.70
2023-01-18T05:59:59.855Z,2.71
2023-01-18T06:04:04.268Z,2.73
2023-01-18T06:08:07.361Z,2.74
2023-01-18T06:12:10.621Z,2.77
2023-01-18T06:16:13.740Z,2.81
2023-01-18T06:20:18.552Z,2.81
2023-01-18T06:24:21.740Z,2.82
2023-01-18T06:28:26.142Z,2.82
2023-01-18T06:32:29.891Z,2.82
2023-01-18T06:36:34.463Z,2.81
2023-01-18T06:40:37.570Z,2.81
2023-01-18T06:44:41.125Z,2.81
2023-01-18T06:48:44.176Z,2.83
2023-01-18T06:52:48.615Z,2.86
2023-01-18T06:56:51.837Z,2.86
2023-01-18T07:00:59.412Z,2.90
2023-01-18T07:05:03.034Z,2.92
2023-01-18T07:09:09.408Z,2.98
2023-01-18T07:13:12.670Z,3.01
2023-01-18T07:17:16.140Z,3.00
2023-01-18T07:21:22.864Z,3.05
2023-01-18T07:25:27.708Z,3.07
2023-01-18T07:29:30.937Z,3.11
2023-01-18T07:33:33.984Z,3.13
2023-01-18T07:37:38.660Z,3.13
2023-01-18T07:41:43.236Z,3.11
2023-01-18T07:45:54.649Z,3.09
2023-01-18T07:49:57.748Z,3.07
2023-01-18T07:54:00.794Z,3.02
2023-01-18T07:58:05.288Z,2.98
2023-01-18T08:02:12.469Z,2.92
2023-01-18T08:06:17.815Z,2.94
2023-01-18T08:10:21.409Z,2.93
2023-01-18T08:14:26.073Z,2.90
2023-01-18T08:18:29.292Z,2.92
2023-01-18T08:22:32.392Z,2.99
2023-01-18T08:26:35.617Z,3.07
2023-01-18T08:30:41.780Z,3.11
2023-01-18T08:34:44.901Z,3.12
2023-01-18T08:38:50.340Z,3.12
2023-01-18T08:42:57.787Z,3.15
2023-01-18T08:47:03.367Z,3.24
2023-01-18T08:51:07.094Z,3.33
2023-01-18T08:55:11.042Z,3.40
2023-01-18T08:59:14.110Z,3.46
2023-01-18T09:03:20.285Z,3.49
2023-01-18T09:07:23.441Z,3.54
2023-01-18T09:11:26.547Z,3.60
2023-01-18T09:15:30.187Z,3.70
2023-01-18T09:19:34.606Z,3.76
2023-01-18T09:23:40.016Z,3.81
2023-01-18T09:27:43.342Z,3.86
2023-01-18T09:31:46.948Z,3.89
2023-01-18T09:35:51.378Z,3.92
2023-01-18T09:39:57.941Z,3.96
2023-01-18T09:44:04.117Z,4.03
2023-01-18T09:48:12.543Z,4.12
2023-01-18T09:52:26.206Z,4.21
2023-01-18T09:56:39.396Z,4.31
2023-01-18T10:00:46.409Z,4.38
2023-01-18T10:04:53.492Z,4.44
2023-01-18T10:09:04.406Z,4.51
2023-01-18T10:13:28.117Z,4.53
2023-01-18T10:17:37.061Z,4.58
2023-01-18T10:21:50.727Z,4.68
2023-01-18T10:25:57.571Z,4.74
2023-01-18T10:30:14.249Z,4.88
2023-01-18T10:34:20.884Z,4.83
2023-01-18T10:38:27.256Z,4.79
2023-01-18T10:42:40.695Z,4.76
2023-01-18T10:46:44.487Z,4.77
2023-01-18T10:50:52.301Z,4.78
2023-01-18T10:55:01.315Z,4.82
2023-01-18T10:59:05.934Z,4.89
2023-01-18T11:03:15.877Z,4.90
2023-01-18T11:07:26.397Z,4.91
2023-01-18T11:11:45.524Z,4.91
2023-01-18T11:15:50.776Z,4.90
2023-01-18T11:20:06.577Z,4.91
2023-01-18T11:24:15.826Z,4.95
2023-01-18T11:28:21.340Z,5.00
2023-01-18T11:32:27.939Z,5.04
2023-01-18T11:36:37.337Z,5.13
2023-01-18T11:40:40.370Z,5.26
2023-01-18T11:44:48.370Z,5.37
2023-01-18T11:48:58.998Z,5.44
2023-01-18T11:53:10.535Z,5.46
2023-01-18T11:57:14.481Z,5.46
2023-01-18T12:01:52.499Z,5.49
2023-01-18T12:06:03.900Z,5.53
2023-01-18T12:10:13.969Z,5.66
2023-01-18T12:14:36.203Z,5.76
2023-01-18T12:19:07.844Z,5.84
2023-01-18T12:23:51.783Z,5.90
2023-01-18T12:28:03.159Z,5.94
2023-01-18T12:32:20.548Z,5.96
2023-01-18T12:36:46.129Z,5.97
2023-01-18T12:41:03.241Z,6.05
2023-01-18T12:45:18.771Z,6.17
2023-01-18T12:49:23.222Z,6.31
2023-01-18T12:53:37.824Z,6.41
2023-01-18T12:57:42.375Z,6.43
2023-01-18T13:01:51.785Z,6.46
2023-01-18T13:05:58.364Z,6.48
2023-01-18T13:10:02.133Z,6.55
2023-01-18T13:14:12.557Z,6.60
2023-01-18T13:18:22.561Z,6.63
2023-01-18T13:22:31.698Z,6.59
2023-01-18T13:26:36.036Z,6.62
2023-01-18T13:30:52.679Z,6.65
2023-01-18T13:35:18.707Z,6.71
2023-01-18T13:39:24.517Z,6.78
2023-01-18T13:44:02.766Z,6.86
2023-01-18T13:48:30.255Z,6.91
2023-01-18T13:52:35.272Z,6.94
2023-01-18T13:56:39.216Z,6.91
2023-01-18T14:00:48.773Z,6.84
2023-01-18T14:05:09.603Z,6.78
2023-01-18T14:09:16.133Z,6.77
2023-01-18T14:13:19.430Z,6.78
2023-01-18T14:17:25.124Z,6.77
2023-01-18T14:21:40.100Z,6.72
2023-01-18T14:25:58.638Z,6.66
2023-01-18T14:30:06.819Z,6.60
2023-01-18T14:34:35.305Z,6.57
2023-01-18T14:38:41.189Z,6.58
2023-01-18T14:42:49.499Z,6.59
2023-01-18T14:46:54.337Z,6.58
2023-01-18T14:50:59.054Z,6.54
2023-01-18T14:55:04.361Z,6.51
2023-01-18T14:59:20.442Z,6.44
2023-01-18T15:03:26.292Z,6.43
2023-01-18T15:07:33.986Z,6.39
2023-01-18T15:11:40.204Z,6.37
2023-01-18T15:15:44.402Z,6.38
2023-01-18T15:19:49.441Z,6.40
2023-01-18T15:23:54.124Z,6.38
2023-01-18T15:28:06.593Z,6.33
2023-01-18T15:32:21.557Z,6.27
2023-01-18T15:36:24.583Z,6.23
2023-01-18T15:40:30.669Z,6.20
2023-01-18T15:44:47.565Z,6.15
2023-01-18T15:48:53.314Z,6.13
2023-01-18T15:53:06.323Z,6.08
2023-01-18T15:57:15.859Z,6.01
2023-01-18T16:01:24.891Z,5.97
2023-01-18T16:05:28.679Z,5.92
2023-01-18T16:09:32.492Z,5.85
2023-01-18T16:13:38.151Z,5.81
2023-01-18T16:17:45.253Z,5.78
2023-01-18T16:21:50.614Z,5.72
2023-01-18T16:26:00.610Z,5.64
2023-01-18T16:30:07.556Z,5.60
2023-01-18T16:34:24.403Z,5.56
2023-01-18T16:38:27.356Z,5.49
2023-01-18T16:42:58.560Z,5.37
2023-01-18T16:47:01.497Z,5.32
2023-01-18T16:51:15.661Z,5.26
2023-01-18T16:55:19.741Z,5.23
2023-01-18T16:59:23.428Z,5.20
2023-01-18T17:03:27.568Z,5.19
2023-01-18T17:07:32.207Z,5.15
2023-01-18T17:11:35.160Z,5.11
2023-01-18T17:15:41.451Z,5.05
2023-01-18T17:19:44.363Z,5.00
2023-01-18T17:23:48.601Z,4.93
2023-01-18T17:27:52.288Z,4.88
2023-01-18T17:31:55.301Z,4.82
2023-01-18T17:35:58.372Z,4.78
2023-01-18T17:40:16.467Z,4.71
2023-01-18T17:44:24.234Z,4.66
2023-01-18T17:48:30.139Z,4.62
2023-01-18T17:52:33.167Z,4.59
2023-01-18T17:56:37.764Z,4.54
2023-01-18T18:00:40.826Z,4.50
2023-01-18T18:04:43.829Z,4.41
2023-01-18T18:08:47.339Z,4.40
2023-01-18T18:12:51.824Z,4.39
2023-01-18T18:16:54.927Z,4.35
2023-01-18T18:20:58.619Z,4.33
2023-01-18T18:25:02.030Z,4.26
2023-01-18T18:29:06.567Z,4.24
2023-01-18T18:33:09.761Z,4.20
2023-01-18T18:37:15.127Z,4.16
2023-01-18T18:41:18.429Z,4.11
2023-01-18T18:45:24.516Z,4.07
2023-01-18T18:49:27.625Z,4.02
2023-01-18T18:53:38.241Z,3.98
2023-01-18T18:57:41.809Z,3.94
2023-01-18T19:01:46.249Z,3.88
2023-01-18T19:05:49.329Z,3.84
2023-01-18T19:09:52.557Z,3.82
2023-01-18T19:13:56.919Z,3.80
2023-01-18T19:18:16.781Z,3.78
2023-01-18T19:22:20.132Z,3.74
2023-01-18T19:26:23.155Z,3.70
2023-01-18T19:30:26.474Z,3.70
2023-01-18T19:34:31.000Z,3.64
2023-01-18T19:38:35.543Z,3.62
2023-01-18T19:42:44.631Z,3.63
2023-01-18T19:46:48.109Z,3.61
2023-01-18T19:50:53.041Z,3.51
2023-01-18T19:54:56.398Z,3.43
2023-01-18T19:58:59.715Z,3.41
2023-01-18T20:03:03.180Z,3.40
2023-01-18T20:07:08.091Z,3.40
2023-01-18T20:11:12.802Z,3.38
2023-01-18T20:15:17.349Z,3.34
2023-01-18T20:19:20.413Z,3.32
2023-01-18T20:23:25.118Z,3.27
2023-01-18T20:27:28.979Z,3.23
2023-01-18T20:31:33.051Z,3.21
2023-01-18T20:35:36.161Z,3.21
2023-01-18T20:39:40.882Z,3.19
2023-01-18T20:43:44.370Z,3.21
2023-01-18T20:47:47.469Z,3.19
2023-01-18T20:51:50.556Z,3.18
2023-01-18T20:55:55.325Z,3.17
2023-01-18T20:59:58.851Z,3.17
2023-01-18T21:04:04.506Z,3.15
2023-01-18T21:08:07.543Z,3.12
2023-01-18T21:12:11.920Z,3.11
2023-01-18T21:16:14.991Z,3.13
2023-01-18T21:20:18.147Z,3.13
2023-01-18T21:24:21.423Z,3.14
2023-01-18T21:28:26.980Z,3.14
2023-01-18T21:32:30.012Z,3.12
2023-01-18T21:36:33.005Z,3.12
2023-01-18T21:40:36.027Z,3.09
2023-01-18T21:44:58.478Z,3.08
2023-01-18T21:49:03.955Z,3.06
2023-01-18T21:53:27.814Z,3.06
2023-01-18T21:57:31.209Z,3.05
2023-01-18T22:01:39.333Z,3.04
2023-01-18T22:05:42.500Z,3.04
2023-01-18T22:09:59.053Z,3.05
2023-01-18T22:14:08.548Z,3.04
2023-01-18T22:18:12.915Z,2.96
2023-01-18T22:22:16.371Z,2.82
2023-01-18T22:26:20.407Z,2.77
2023-01-18T22:30:23.572Z,2.72
2023-01-18T22:34:28.472Z,2.70
2023-01-18T22:38:31.868Z,2.75
2023-01-18T22:42:35.452Z,2.78
2023-01-18T22:46:38.737Z,2.81
2023-01-18T22:50:43.152Z,2.85
2023-01-18T22:54:46.224Z,2.89
2023-01-18T22:58:49.893Z,2.95
2023-01-18T23:02:52.907Z,2.98
2023-01-18T23:07:00.806Z,2.98
2023-01-18T23:11:04.038Z,2.96
2023-01-18T23:15:25.409Z,2.96
2023-01-18T23:19:30.676Z,2.95
2023-01-18T23:23:35.285Z,2.91
2023-01-18T23:27:38.511Z,2.85
2023-01-18T23:31:42.581Z,2.82
2023-01-18T23:35:45.675Z,2.79
2023-01-18T23:40:07.804Z,2.73
2023-01-18T23:44:28.046Z,2.68
2023-01-18T23:48:49.019Z,2.65
2023-01-18T23:53:09.887Z,2.63
2023-01-18T23:57:15.029Z,2.63
